sensor_id;sensor_type;location;lat;lon;timestamp;temperature;humidity
22364;DHT22;11349;53.412;-1.328;2024-01-10T00:01:35;3.30;99.90
22364;DHT22;11349;53.412;-1.328;2024-01-10T00:04:00;3.20;99.90
22364;DHT22;11349;53.412;-1.328;2024-01-10T00:06:26;3.30;99.90
22364;DHT22;11349;53.412;-1.328;2024-01-10T00:08:52;3.30;99.90
22364;DHT22;11349;53.412;-1.328;2024-01-10T00:11:17;3.20;99.90
22364;DHT22;11349;53.412;-1.328;2024-01-10T00:13:43;3.20;99.90
22364;DHT22;11349;53.412;-1.328;2024-01-10T00:16:12;3.20;99.90
22364;DHT22;11349;53.412;-1.328;2024-01-10T00:18:39;3.20;99.90
22364;DHT22;11349;53.412;-1.328;2024-01-10T00:21:06;3.20;99.90
22364;DHT22;11349;53.412;-1.328;2024-01-10T00:23:32;3.20;99.90
22364;DHT22;11349;53.412;-1.328;2024-01-10T00:25:57;3.20;99.90
22364;DHT22;11349;53.412;-1.328;2024-01-10T00:28:23;3.20;99.90
22364;DHT22;11349;53.412;-1.328;2024-01-10T00:30:50;3.20;99.90
22364;DHT22;11349;53.412;-1.328;2024-01-10T00:33:15;3.30;99.90
22364;DHT22;11349;53.412;-1.328;2024-01-10T00:35:41;3.20;99.90
22364;DHT22;11349;53.412;-1.328;2024-01-10T00:38:08;3.30;99.90
22364;DHT22;11349;53.412;-1.328;2024-01-10T00:40:34;3.30;99.90
22364;DHT22;11349;53.412;-1.328;2024-01-10T00:43:00;3.30;99.90
22364;DHT22;11349;53.412;-1.328;2024-01-10T00:45:26;3.30;99.90
22364;DHT22;11349;53.412;-1.328;2024-01-10T00:47:51;3.30;99.90
22364;DHT22;11349;53.412;-1.328;2024-01-10T00:50:17;3.30;99.90
22364;DHT22;11349;53.412;-1.328;2024-01-10T00:52:46;3.30;99.90
22364;DHT22;11349;53.412;-1.328;2024-01-10T00:55:12;3.30;99.90
22364;DHT22;11349;53.412;-1.328;2024-01-10T00:57:38;3.30;99.90
22364;DHT22;11349;53.412;-1.328;2024-01-10T01:00:06;3.30;99.90
22364;DHT22;11349;53.412;-1.328;2024-01-10T01:02:32;3.30;99.90
22364;DHT22;11349;53.412;-1.328;2024-01-10T01:04:57;3.20;99.90
22364;DHT22;11349;53.412;-1.328;2024-01-10T01:07:23;3.30;99.90
22364;DHT22;11349;53.412;-1.328;2024-01-10T01:09:49;3.30;99.90
22364;DHT22;11349;53.412;-1.328;2024-01-10T01:12:14;3.30;99.90
22364;DHT22;11349;53.412;-1.328;2024-01-10T01:14:40;3.40;99.90
22364;DHT22;11349;53.412;-1.328;2024-01-10T01:17:06;3.40;99.90
22364;DHT22;11349;53.412;-1.328;2024-01-10T01:19:31;3.30;99.90
22364;DHT22;11349;53.412;-1.328;2024-01-10T01:21:57;3.30;99.90
22364;DHT22;11349;53.412;-1.328;2024-01-10T01:24:23;3.30;99.90
22364;DHT22;11349;53.412;-1.328;2024-01-10T01:26:49;3.30;99.90
22364;DHT22;11349;53.412;-1.328;2024-01-10T01:29:14;3.30;99.90
22364;DHT22;11349;53.412;-1.328;2024-01-10T01:31:40;3.40;99.90
22364;DHT22;11349;53.412;-1.328;2024-01-10T01:34:06;3.30;99.90
22364;DHT22;11349;53.412;-1.328;2024-01-10T01:36:31;3.30;99.90
22364;DHT22;11349;53.412;-1.328;2024-01-10T01:38:57;3.40;99.90
22364;DHT22;11349;53.412;-1.328;2024-01-10T01:41:22;3.30;99.90
22364;DHT22;11349;53.412;-1.328;2024-01-10T01:43:48;3.30;99.90
22364;DHT22;11349;53.412;-1.328;2024-01-10T01:46:14;3.30;99.90
22364;DHT22;11349;53.412;-1.328;2024-01-10T01:48:40;3.40;99.90
22364;DHT22;11349;53.412;-1.328;2024-01-10T01:51:07;3.40;99.90
22364;DHT22;11349;53.412;-1.328;2024-01-10T01:53:35;3.50;99.90
22364;DHT22;11349;53.412;-1.328;2024-01-10T01:56:05;3.50;99.90
22364;DHT22;11349;53.412;-1.328;2024-01-10T01:58:31;3.40;99.90
22364;DHT22;11349;53.412;-1.328;2024-01-10T02:00:57;3.40;99.90
22364;DHT22;11349;53.412;-1.328;2024-01-10T02:03:24;3.40;99.90
22364;DHT22;11349;53.412;-1.328;2024-01-10T02:05:50;3.40;99.90
22364;DHT22;11349;53.412;-1.328;2024-01-10T02:08:16;3.40;99.90
22364;DHT22;11349;53.412;-1.328;2024-01-10T02:10:41;3.40;99.90
22364;DHT22;11349;53.412;-1.328;2024-01-10T02:13:07;3.40;99.90
22364;DHT22;11349;53.412;-1.328;2024-01-10T02:15:37;3.40;99.90
22364;DHT22;11349;53.412;-1.328;2024-01-10T02:18:04;3.50;99.90
22364;DHT22;11349;53.412;-1.328;2024-01-10T02:20:31;3.40;99.90
22364;DHT22;11349;53.412;-1.328;2024-01-10T02:22:57;3.40;99.90
22364;DHT22;11349;53.412;-1.328;2024-01-10T02:25:22;3.40;99.90
22364;DHT22;11349;53.412;-1.328;2024-01-10T02:27:48;3.40;99.90
22364;DHT22;11349;53.412;-1.328;2024-01-10T02:30:14;3.40;99.90
22364;DHT22;11349;53.412;-1.328;2024-01-10T02:32:40;3.40;99.90
22364;DHT22;11349;53.412;-1.328;2024-01-10T02:35:06;3.40;99.90
22364;DHT22;11349;53.412;-1.328;2024-01-10T02:37:32;3.50;99.90
22364;DHT22;11349;53.412;-1.328;2024-01-10T02:39:58;3.40;99.90
22364;DHT22;11349;53.412;-1.328;2024-01-10T02:42:24;3.40;99.90
22364;DHT22;11349;53.412;-1.328;2024-01-10T02:44:49;3.50;99.90
22364;DHT22;11349;53.412;-1.328;2024-01-10T02:47:15;3.40;99.90
22364;DHT22;11349;53.412;-1.328;2024-01-10T02:49:41;3.40;99.90
22364;DHT22;11349;53.412;-1.328;2024-01-10T02:52:06;3.50;99.90
22364;DHT22;11349;53.412;-1.328;2024-01-10T02:54:32;3.50;99.90
22364;DHT22;11349;53.412;-1.328;2024-01-10T02:56:58;3.50;99.90
22364;DHT22;11349;53.412;-1.328;2024-01-10T02:59:23;3.50;99.90
22364;DHT22;11349;53.412;-1.328;2024-01-10T03:01:49;3.50;99.90
22364;DHT22;11349;53.412;-1.328;2024-01-10T03:04:15;3.40;99.90
22364;DHT22;11349;53.412;-1.328;2024-01-10T03:06:41;3.30;99.90
22364;DHT22;11349;53.412;-1.328;2024-01-10T03:09:06;3.30;99.90
22364;DHT22;11349;53.412;-1.328;2024-01-10T03:11:32;3.30;99.90
22364;DHT22;11349;53.412;-1.328;2024-01-10T03:14:03;3.30;99.90
22364;DHT22;11349;53.412;-1.328;2024-01-10T03:16:30;3.40;99.90
22364;DHT22;11349;53.412;-1.328;2024-01-10T03:18:55;3.30;99.90
22364;DHT22;11349;53.412;-1.328;2024-01-10T03:21:21;3.30;99.90
22364;DHT22;11349;53.412;-1.328;2024-01-10T03:24:00;3.40;99.90
22364;DHT22;11349;53.412;-1.328;2024-01-10T03:26:27;3.20;99.90
22364;DHT22;11349;53.412;-1.328;2024-01-10T03:28:53;3.30;99.90
22364;DHT22;11349;53.412;-1.328;2024-01-10T03:31:19;3.30;99.90
22364;DHT22;11349;53.412;-1.328;2024-01-10T03:33:45;3.30;99.90
22364;DHT22;11349;53.412;-1.328;2024-01-10T03:36:13;3.30;99.90
22364;DHT22;11349;53.412;-1.328;2024-01-10T03:38:42;3.20;99.90
22364;DHT22;11349;53.412;-1.328;2024-01-10T03:41:13;3.30;99.90
22364;DHT22;11349;53.412;-1.328;2024-01-10T03:43:39;3.20;99.90
22364;DHT22;11349;53.412;-1.328;2024-01-10T03:46:04;3.10;99.90
22364;DHT22;11349;53.412;-1.328;2024-01-10T03:48:31;3.10;99.90
22364;DHT22;11349;53.412;-1.328;2024-01-10T03:50:57;3.10;99.90
22364;DHT22;11349;53.412;-1.328;2024-01-10T03:53:22;3.10;99.90
22364;DHT22;11349;53.412;-1.328;2024-01-10T03:55:48;3.10;99.90
22364;DHT22;11349;53.412;-1.328;2024-01-10T03:58:14;3.10;99.90
22364;DHT22;11349;53.412;-1.328;2024-01-10T04:00:39;3.10;99.90
22364;DHT22;11349;53.412;-1.328;2024-01-10T04:03:05;3.10;99.90
22364;DHT22;11349;53.412;-1.328;2024-01-10T04:05:31;3.10;99.90
22364;DHT22;11349;53.412;-1.328;2024-01-10T04:07:56;3.10;99.90
22364;DHT22;11349;53.412;-1.328;2024-01-10T04:10:22;3.20;99.90
22364;DHT22;11349;53.412;-1.328;2024-01-10T04:12:48;3.20;99.90
22364;DHT22;11349;53.412;-1.328;2024-01-10T04:15:15;3.20;99.90
22364;DHT22;11349;53.412;-1.328;2024-01-10T04:17:41;3.10;99.90
22364;DHT22;11349;53.412;-1.328;2024-01-10T04:20:07;3.20;99.90
22364;DHT22;11349;53.412;-1.328;2024-01-10T04:22:33;3.20;99.90
22364;DHT22;11349;53.412;-1.328;2024-01-10T04:24:59;3.10;99.90
22364;DHT22;11349;53.412;-1.328;2024-01-10T04:27:26;3.20;99.90
22364;DHT22;11349;53.412;-1.328;2024-01-10T04:29:53;3.20;99.90
22364;DHT22;11349;53.412;-1.328;2024-01-10T04:32:18;3.20;99.90
22364;DHT22;11349;53.412;-1.328;2024-01-10T04:34:44;3.20;99.90
22364;DHT22;11349;53.412;-1.328;2024-01-10T04:37:10;3.20;99.90
22364;DHT22;11349;53.412;-1.328;2024-01-10T04:39:36;3.20;99.90
22364;DHT22;11349;53.412;-1.328;2024-01-10T04:42:03;3.20;99.90
22364;DHT22;11349;53.412;-1.328;2024-01-10T04:44:29;3.20;99.90
22364;DHT22;11349;53.412;-1.328;2024-01-10T04:46:55;3.30;99.90
22364;DHT22;11349;53.412;-1.328;2024-01-10T04:49:21;3.30;99.90
22364;DHT22;11349;53.412;-1.328;2024-01-10T04:51:46;3.30;99.90
22364;DHT22;11349;53.412;-1.328;2024-01-10T04:54:12;3.30;99.90
22364;DHT22;11349;53.412;-1.328;2024-01-10T04:56:38;3.30;99.90
22364;DHT22;11349;53.412;-1.328;2024-01-10T04:59:04;3.30;99.90
22364;DHT22;11349;53.412;-1.328;2024-01-10T05:01:31;3.40;99.90
22364;DHT22;11349;53.412;-1.328;2024-01-10T05:03:57;3.40;99.90
22364;DHT22;11349;53.412;-1.328;2024-01-10T05:06:23;3.30;99.90
22364;DHT22;11349;53.412;-1.328;2024-01-10T05:08:49;3.30;99.90
22364;DHT22;11349;53.412;-1.328;2024-01-10T05:11:15;3.30;99.90
22364;DHT22;11349;53.412;-1.328;2024-01-10T05:13:42;3.30;99.90
22364;DHT22;11349;53.412;-1.328;2024-01-10T05:16:07;3.30;99.90
22364;DHT22;11349;53.412;-1.328;2024-01-10T05:18:33;3.30;99.90
22364;DHT22;11349;53.412;-1.328;2024-01-10T05:20:59;3.30;99.90
22364;DHT22;11349;53.412;-1.328;2024-01-10T05:23:25;3.30;99.90
22364;DHT22;11349;53.412;-1.328;2024-01-10T05:25:51;3.40;99.90
22364;DHT22;11349;53.412;-1.328;2024-01-10T05:28:17;3.30;99.90
22364;DHT22;11349;53.412;-1.328;2024-01-10T05:30:43;3.30;99.90
22364;DHT22;11349;53.412;-1.328;2024-01-10T05:33:09;3.30;99.90
22364;DHT22;11349;53.412;-1.328;2024-01-10T05:35:36;3.30;99.90
22364;DHT22;11349;53.412;-1.328;2024-01-10T05:38:02;3.30;99.90
22364;DHT22;11349;53.412;-1.328;2024-01-10T05:40:29;3.40;99.90
22364;DHT22;11349;53.412;-1.328;2024-01-10T05:42:58;3.40;99.90
22364;DHT22;11349;53.412;-1.328;2024-01-10T05:45:26;3.40;99.90
22364;DHT22;11349;53.412;-1.328;2024-01-10T05:47:53;3.40;99.90
22364;DHT22;11349;53.412;-1.328;2024-01-10T05:50:20;3.40;99.90
22364;DHT22;11349;53.412;-1.328;2024-01-10T05:52:46;3.40;99.90
22364;DHT22;11349;53.412;-1.328;2024-01-10T05:55:12;3.30;99.90
22364;DHT22;11349;53.412;-1.328;2024-01-10T05:57:38;3.30;99.90
22364;DHT22;11349;53.412;-1.328;2024-01-10T06:00:05;3.30;99.90
22364;DHT22;11349;53.412;-1.328;2024-01-10T06:02:38;3.40;99.90
22364;DHT22;11349;53.412;-1.328;2024-01-10T06:05:13;3.40;99.90
22364;DHT22;11349;53.412;-1.328;2024-01-10T06:07:40;3.30;99.90
22364;DHT22;11349;53.412;-1.328;2024-01-10T06:10:08;3.20;99.90
22364;DHT22;11349;53.412;-1.328;2024-01-10T06:12:38;3.30;99.90
22364;DHT22;11349;53.412;-1.328;2024-01-10T06:15:04;3.20;99.90
22364;DHT22;11349;53.412;-1.328;2024-01-10T06:17:30;3.30;99.90
22364;DHT22;11349;53.412;-1.328;2024-01-10T06:19:57;3.30;99.90
22364;DHT22;11349;53.412;-1.328;2024-01-10T06:22:24;3.30;99.90
22364;DHT22;11349;53.412;-1.328;2024-01-10T06:24:50;3.30;99.90
22364;DHT22;11349;53.412;-1.328;2024-01-10T06:27:16;3.30;99.90
22364;DHT22;11349;53.412;-1.328;2024-01-10T06:29:44;3.30;99.90
22364;DHT22;11349;53.412;-1.328;2024-01-10T06:32:10;3.30;99.90
22364;DHT22;11349;53.412;-1.328;2024-01-10T06:34:36;3.20;99.90
22364;DHT22;11349;53.412;-1.328;2024-01-10T06:37:03;3.30;99.90
22364;DHT22;11349;53.412;-1.328;2024-01-10T06:39:28;3.30;99.90
22364;DHT22;11349;53.412;-1.328;2024-01-10T06:41:54;3.30;99.90
22364;DHT22;11349;53.412;-1.328;2024-01-10T06:44:20;3.30;99.90
22364;DHT22;11349;53.412;-1.328;2024-01-10T06:46:46;3.20;99.90
22364;DHT22;11349;53.412;-1.328;2024-01-10T06:49:12;3.30;99.90
22364;DHT22;11349;53.412;-1.328;2024-01-10T06:51:38;3.20;99.90
22364;DHT22;11349;53.412;-1.328;2024-01-10T06:54:04;3.30;99.90
22364;DHT22;11349;53.412;-1.328;2024-01-10T06:56:33;3.20;99.90
22364;DHT22;11349;53.412;-1.328;2024-01-10T06:58:59;3.20;99.90
22364;DHT22;11349;53.412;-1.328;2024-01-10T07:01:26;3.30;99.90
22364;DHT22;11349;53.412;-1.328;2024-01-10T07:03:55;3.30;99.90
22364;DHT22;11349;53.412;-1.328;2024-01-10T07:06:21;3.20;99.90
22364;DHT22;11349;53.412;-1.328;2024-01-10T07:08:48;3.30;99.90
22364;DHT22;11349;53.412;-1.328;2024-01-10T07:11:15;3.30;99.90
22364;DHT22;11349;53.412;-1.328;2024-01-10T07:13:41;3.30;99.90
22364;DHT22;11349;53.412;-1.328;2024-01-10T07:16:08;3.30;99.90
22364;DHT22;11349;53.412;-1.328;2024-01-10T07:18:34;3.30;99.90
22364;DHT22;11349;53.412;-1.328;2024-01-10T07:21:00;3.30;99.90
22364;DHT22;11349;53.412;-1.328;2024-01-10T07:23:26;3.30;99.90
22364;DHT22;11349;53.412;-1.328;2024-01-10T07:25:52;3.30;99.90
22364;DHT22;11349;53.412;-1.328;2024-01-10T07:28:19;3.40;99.90
22364;DHT22;11349;53.412;-1.328;2024-01-10T07:30:45;3.40;99.90
22364;DHT22;11349;53.412;-1.328;2024-01-10T07:33:11;3.40;99.90
22364;DHT22;11349;53.412;-1.328;2024-01-10T07:35:37;3.40;99.90
22364;DHT22;11349;53.412;-1.328;2024-01-10T07:38:07;3.40;99.90
22364;DHT22;11349;53.412;-1.328;2024-01-10T07:40:33;3.40;99.90
22364;DHT22;11349;53.412;-1.328;2024-01-10T07:42:59;3.40;99.90
22364;DHT22;11349;53.412;-1.328;2024-01-10T07:45:25;3.50;99.90
22364;DHT22;11349;53.412;-1.328;2024-01-10T07:47:51;3.50;99.90
22364;DHT22;11349;53.412;-1.328;2024-01-10T07:50:16;3.50;99.90
22364;DHT22;11349;53.412;-1.328;2024-01-10T07:52:44;3.50;99.90
22364;DHT22;11349;53.412;-1.328;2024-01-10T07:55:11;3.60;99.90
22364;DHT22;11349;53.412;-1.328;2024-01-10T07:57:37;3.60;99.90
22364;DHT22;11349;53.412;-1.328;2024-01-10T08:00:05;3.60;99.90
22364;DHT22;11349;53.412;-1.328;2024-01-10T08:02:31;3.50;99.90
22364;DHT22;11349;53.412;-1.328;2024-01-10T08:05:03;3.50;99.90
22364;DHT22;11349;53.412;-1.328;2024-01-10T08:07:34;3.50;99.90
22364;DHT22;11349;53.412;-1.328;2024-01-10T08:10:06;3.60;99.90
22364;DHT22;11349;53.412;-1.328;2024-01-10T08:12:32;3.50;99.90
22364;DHT22;11349;53.412;-1.328;2024-01-10T08:14:57;3.60;99.90
22364;DHT22;11349;53.412;-1.328;2024-01-10T08:17:23;3.60;99.90
22364;DHT22;11349;53.412;-1.328;2024-01-10T08:19:49;3.60;99.90
22364;DHT22;11349;53.412;-1.328;2024-01-10T08:22:14;3.50;99.90
22364;DHT22;11349;53.412;-1.328;2024-01-10T08:24:41;3.60;99.90
22364;DHT22;11349;53.412;-1.328;2024-01-10T08:27:06;3.60;99.90
22364;DHT22;11349;53.412;-1.328;2024-01-10T08:29:33;3.60;99.90
22364;DHT22;11349;53.412;-1.328;2024-01-10T08:31:59;3.60;99.90
22364;DHT22;11349;53.412;-1.328;2024-01-10T08:34:25;3.60;99.90
22364;DHT22;11349;53.412;-1.328;2024-01-10T08:36:51;3.60;99.90
22364;DHT22;11349;53.412;-1.328;2024-01-10T08:39:17;3.60;99.90
22364;DHT22;11349;53.412;-1.328;2024-01-10T08:41:43;3.60;99.90
22364;DHT22;11349;53.412;-1.328;2024-01-10T08:44:12;3.60;99.90
22364;DHT22;11349;53.412;-1.328;2024-01-10T08:46:38;3.50;99.90
22364;DHT22;11349;53.412;-1.328;2024-01-10T08:49:04;3.50;99.90
22364;DHT22;11349;53.412;-1.328;2024-01-10T08:51:30;3.50;99.90
22364;DHT22;11349;53.412;-1.328;2024-01-10T08:53:56;3.60;99.90
22364;DHT22;11349;53.412;-1.328;2024-01-10T08:56:22;3.60;99.90
22364;DHT22;11349;53.412;-1.328;2024-01-10T08:58:48;3.60;99.90
22364;DHT22;11349;53.412;-1.328;2024-01-10T09:01:14;3.60;99.90
22364;DHT22;11349;53.412;-1.328;2024-01-10T09:03:40;3.60;99.90
22364;DHT22;11349;53.412;-1.328;2024-01-10T09:06:06;3.60;99.90
22364;DHT22;11349;53.412;-1.328;2024-01-10T09:08:33;3.70;99.90
22364;DHT22;11349;53.412;-1.328;2024-01-10T09:10:59;3.60;99.90
22364;DHT22;11349;53.412;-1.328;2024-01-10T09:13:25;3.60;99.90
22364;DHT22;11349;53.412;-1.328;2024-01-10T09:15:51;3.60;99.90
22364;DHT22;11349;53.412;-1.328;2024-01-10T09:18:16;3.60;99.90
22364;DHT22;11349;53.412;-1.328;2024-01-10T09:20:44;3.60;99.90
22364;DHT22;11349;53.412;-1.328;2024-01-10T09:23:09;3.70;99.90
22364;DHT22;11349;53.412;-1.328;2024-01-10T09:25:36;3.70;99.90
22364;DHT22;11349;53.412;-1.328;2024-01-10T09:28:04;3.70;99.90
22364;DHT22;11349;53.412;-1.328;2024-01-10T09:30:29;3.70;99.90
22364;DHT22;11349;53.412;-1.328;2024-01-10T09:32:55;3.70;99.90
22364;DHT22;11349;53.412;-1.328;2024-01-10T09:35:22;3.70;99.90
22364;DHT22;11349;53.412;-1.328;2024-01-10T09:37:48;3.70;99.90
22364;DHT22;11349;53.412;-1.328;2024-01-10T09:40:15;3.80;99.90
22364;DHT22;11349;53.412;-1.328;2024-01-10T09:42:43;3.90;99.90
22364;DHT22;11349;53.412;-1.328;2024-01-10T09:45:10;3.80;99.90
22364;DHT22;11349;53.412;-1.328;2024-01-10T09:47:39;3.90;99.90
22364;DHT22;11349;53.412;-1.328;2024-01-10T09:50:06;4.00;99.90
22364;DHT22;11349;53.412;-1.328;2024-01-10T09:52:46;3.90;99.90
22364;DHT22;11349;53.412;-1.328;2024-01-10T09:55:14;4.00;99.90
22364;DHT22;11349;53.412;-1.328;2024-01-10T09:57:42;4.00;99.90
22364;DHT22;11349;53.412;-1.328;2024-01-10T10:00:10;4.10;99.90
22364;DHT22;11349;53.412;-1.328;2024-01-10T10:02:38;4.10;99.90
22364;DHT22;11349;53.412;-1.328;2024-01-10T10:05:08;4.10;99.90
22364;DHT22;11349;53.412;-1.328;2024-01-10T10:07:44;4.20;99.90
22364;DHT22;11349;53.412;-1.328;2024-01-10T10:10:10;4.10;99.90
22364;DHT22;11349;53.412;-1.328;2024-01-10T10:12:48;4.10;99.90
22364;DHT22;11349;53.412;-1.328;2024-01-10T10:15:18;4.10;99.90
22364;DHT22;11349;53.412;-1.328;2024-01-10T10:17:45;4.20;99.90
22364;DHT22;11349;53.412;-1.328;2024-01-10T10:20:26;4.20;99.90
22364;DHT22;11349;53.412;-1.328;2024-01-10T10:25:35;4.30;99.90
22364;DHT22;11349;53.412;-1.328;2024-01-10T10:28:04;4.30;99.90
22364;DHT22;11349;53.412;-1.328;2024-01-10T10:30:33;4.30;99.90
22364;DHT22;11349;53.412;-1.328;2024-01-10T10:33:00;4.30;99.90
22364;DHT22;11349;53.412;-1.328;2024-01-10T10:35:25;4.30;99.90
22364;DHT22;11349;53.412;-1.328;2024-01-10T10:37:52;4.30;99.90
22364;DHT22;11349;53.412;-1.328;2024-01-10T10:40:19;4.40;99.90
22364;DHT22;11349;53.412;-1.328;2024-01-10T10:42:46;4.30;99.90
22364;DHT22;11349;53.412;-1.328;2024-01-10T10:45:15;4.40;99.90
22364;DHT22;11349;53.412;-1.328;2024-01-10T10:47:44;4.40;99.90
22364;DHT22;11349;53.412;-1.328;2024-01-10T10:50:22;4.40;99.90
22364;DHT22;11349;53.412;-1.328;2024-01-10T10:52:49;4.40;99.90
22364;DHT22;11349;53.412;-1.328;2024-01-10T10:55:16;4.40;99.90
22364;DHT22;11349;53.412;-1.328;2024-01-10T10:57:44;4.50;99.90
22364;DHT22;11349;53.412;-1.328;2024-01-10T11:00:16;4.50;99.90
22364;DHT22;11349;53.412;-1.328;2024-01-10T11:02:42;4.50;99.90
22364;DHT22;11349;53.412;-1.328;2024-01-10T11:05:11;4.50;99.90
22364;DHT22;11349;53.412;-1.328;2024-01-10T11:07:38;4.60;99.90
22364;DHT22;11349;53.412;-1.328;2024-01-10T11:10:11;4.60;99.90
22364;DHT22;11349;53.412;-1.328;2024-01-10T11:23:45;4.50;99.90
22364;DHT22;11349;53.412;-1.328;2024-01-10T11:26:14;4.60;99.90
22364;DHT22;11349;53.412;-1.328;2024-01-10T11:28:40;4.70;99.90
22364;DHT22;11349;53.412;-1.328;2024-01-10T11:31:07;4.70;99.90
22364;DHT22;11349;53.412;-1.328;2024-01-10T11:33:35;4.70;99.90
22364;DHT22;11349;53.412;-1.328;2024-01-10T11:38:43;4.70;99.90
22364;DHT22;11349;53.412;-1.328;2024-01-10T11:41:20;4.70;99.90
22364;DHT22;11349;53.412;-1.328;2024-01-10T11:43:46;4.80;99.90
22364;DHT22;11349;53.412;-1.328;2024-01-10T11:46:12;4.80;99.90
22364;DHT22;11349;53.412;-1.328;2024-01-10T11:48:38;4.80;99.90
22364;DHT22;11349;53.412;-1.328;2024-01-10T11:51:04;4.90;99.90
22364;DHT22;11349;53.412;-1.328;2024-01-10T11:53:43;4.90;99.90
22364;DHT22;11349;53.412;-1.328;2024-01-10T11:56:13;4.90;99.90
22364;DHT22;11349;53.412;-1.328;2024-01-10T12:01:22;5.00;99.90
22364;DHT22;11349;53.412;-1.328;2024-01-10T12:03:51;5.10;99.90
22364;DHT22;11349;53.412;-1.328;2024-01-10T12:06:20;5.10;99.90
22364;DHT22;11349;53.412;-1.328;2024-01-10T12:08:46;5.20;99.90
22364;DHT22;11349;53.412;-1.328;2024-01-10T12:11:12;5.10;99.90
22364;DHT22;11349;53.412;-1.328;2024-01-10T12:13:40;5.00;99.90
22364;DHT22;11349;53.412;-1.328;2024-01-10T12:16:06;5.10;99.90
22364;DHT22;11349;53.412;-1.328;2024-01-10T12:18:31;5.00;99.90
22364;DHT22;11349;53.412;-1.328;2024-01-10T12:20:57;5.00;99.90
22364;DHT22;11349;53.412;-1.328;2024-01-10T12:23:23;5.00;99.90
22364;DHT22;11349;53.412;-1.328;2024-01-10T12:25:49;5.00;99.90
22364;DHT22;11349;53.412;-1.328;2024-01-10T12:28:16;5.00;99.90
22364;DHT22;11349;53.412;-1.328;2024-01-10T12:30:42;5.00;99.90
22364;DHT22;11349;53.412;-1.328;2024-01-10T12:33:11;5.10;99.90
22364;DHT22;11349;53.412;-1.328;2024-01-10T12:35:36;5.10;99.90
22364;DHT22;11349;53.412;-1.328;2024-01-10T12:38:07;5.20;99.90
22364;DHT22;11349;53.412;-1.328;2024-01-10T12:40:32;5.20;99.90
22364;DHT22;11349;53.412;-1.328;2024-01-10T12:43:04;5.20;99.90
22364;DHT22;11349;53.412;-1.328;2024-01-10T12:45:31;5.10;99.90
22364;DHT22;11349;53.412;-1.328;2024-01-10T12:47:57;5.10;99.90
22364;DHT22;11349;53.412;-1.328;2024-01-10T12:50:23;5.20;99.90
22364;DHT22;11349;53.412;-1.328;2024-01-10T12:52:52;5.30;99.90
22364;DHT22;11349;53.412;-1.328;2024-01-10T12:55:18;5.30;99.90
22364;DHT22;11349;53.412;-1.328;2024-01-10T12:57:44;5.20;99.90
22364;DHT22;11349;53.412;-1.328;2024-01-10T13:00:10;5.20;99.90
22364;DHT22;11349;53.412;-1.328;2024-01-10T13:02:37;5.20;99.90
22364;DHT22;11349;53.412;-1.328;2024-01-10T13:05:06;5.20;99.90
22364;DHT22;11349;53.412;-1.328;2024-01-10T13:07:37;5.20;99.90
22364;DHT22;11349;53.412;-1.328;2024-01-10T13:10:03;5.10;99.90
22364;DHT22;11349;53.412;-1.328;2024-01-10T13:12:29;5.20;99.90
22364;DHT22;11349;53.412;-1.328;2024-01-10T13:14:55;5.30;99.90
22364;DHT22;11349;53.412;-1.328;2024-01-10T13:17:22;5.30;99.90
22364;DHT22;11349;53.412;-1.328;2024-01-10T13:19:48;5.40;99.90
22364;DHT22;11349;53.412;-1.328;2024-01-10T13:22:16;5.30;99.90
22364;DHT22;11349;53.412;-1.328;2024-01-10T13:24:47;5.30;99.90
22364;DHT22;11349;53.412;-1.328;2024-01-10T13:27:13;5.30;99.90
22364;DHT22;11349;53.412;-1.328;2024-01-10T13:29:39;5.40;99.90
22364;DHT22;11349;53.412;-1.328;2024-01-10T13:32:05;5.40;99.90
22364;DHT22;11349;53.412;-1.328;2024-01-10T13:34:31;5.30;99.90
22364;DHT22;11349;53.412;-1.328;2024-01-10T13:36:58;5.40;99.90
22364;DHT22;11349;53.412;-1.328;2024-01-10T13:39:23;5.50;99.90
22364;DHT22;11349;53.412;-1.328;2024-01-10T13:41:49;5.50;99.90
22364;DHT22;11349;53.412;-1.328;2024-01-10T13:44:15;5.50;99.90
22364;DHT22;11349;53.412;-1.328;2024-01-10T13:46:41;5.40;99.90
22364;DHT22;11349;53.412;-1.328;2024-01-10T13:49:06;5.50;99.90
22364;DHT22;11349;53.412;-1.328;2024-01-10T13:51:32;5.50;99.90
22364;DHT22;11349;53.412;-1.328;2024-01-10T13:53:58;5.60;99.90
22364;DHT22;11349;53.412;-1.328;2024-01-10T13:56:24;5.50;99.90
22364;DHT22;11349;53.412;-1.328;2024-01-10T13:58:50;5.50;99.90
22364;DHT22;11349;53.412;-1.328;2024-01-10T14:01:15;5.40;99.90
22364;DHT22;11349;53.412;-1.328;2024-01-10T14:03:41;5.50;99.90
22364;DHT22;11349;53.412;-1.328;2024-01-10T14:06:07;5.40;99.90
22364;DHT22;11349;53.412;-1.328;2024-01-10T14:08:33;5.50;99.90
22364;DHT22;11349;53.412;-1.328;2024-01-10T14:10:59;5.50;99.90
22364;DHT22;11349;53.412;-1.328;2024-01-10T14:13:25;5.40;99.90
22364;DHT22;11349;53.412;-1.328;2024-01-10T14:15:50;5.40;99.90
22364;DHT22;11349;53.412;-1.328;2024-01-10T14:18:16;5.40;99.90
22364;DHT22;11349;53.412;-1.328;2024-01-10T14:20:42;5.40;99.90
22364;DHT22;11349;53.412;-1.328;2024-01-10T14:23:08;5.50;99.90
22364;DHT22;11349;53.412;-1.328;2024-01-10T14:25:33;5.50;99.90
22364;DHT22;11349;53.412;-1.328;2024-01-10T14:27:59;5.50;99.90
22364;DHT22;11349;53.412;-1.328;2024-01-10T14:30:26;5.50;99.90
22364;DHT22;11349;53.412;-1.328;2024-01-10T14:32:52;5.50;99.90
22364;DHT22;11349;53.412;-1.328;2024-01-10T14:35:18;5.40;99.90
22364;DHT22;11349;53.412;-1.328;2024-01-10T14:37:44;5.50;99.90
22364;DHT22;11349;53.412;-1.328;2024-01-10T14:40:10;5.50;99.90
22364;DHT22;11349;53.412;-1.328;2024-01-10T14:42:37;5.50;99.90
22364;DHT22;11349;53.412;-1.328;2024-01-10T14:45:03;5.50;99.90
22364;DHT22;11349;53.412;-1.328;2024-01-10T14:47:29;5.50;99.90
22364;DHT22;11349;53.412;-1.328;2024-01-10T14:49:55;5.50;99.90
22364;DHT22;11349;53.412;-1.328;2024-01-10T14:52:24;5.50;99.90
22364;DHT22;11349;53.412;-1.328;2024-01-10T14:54:51;5.50;99.90
22364;DHT22;11349;53.412;-1.328;2024-01-10T14:57:17;5.50;99.90
22364;DHT22;11349;53.412;-1.328;2024-01-10T14:59:43;5.60;99.90
22364;DHT22;11349;53.412;-1.328;2024-01-10T15:02:09;5.50;99.90
22364;DHT22;11349;53.412;-1.328;2024-01-10T15:04:41;5.50;99.90
22364;DHT22;11349;53.412;-1.328;2024-01-10T15:07:07;5.50;99.90
22364;DHT22;11349;53.412;-1.328;2024-01-10T15:09:33;5.60;99.90
22364;DHT22;11349;53.412;-1.328;2024-01-10T15:12:03;5.60;99.90
22364;DHT22;11349;53.412;-1.328;2024-01-10T15:14:31;5.60;99.90
22364;DHT22;11349;53.412;-1.328;2024-01-10T15:16:57;5.60;99.90
22364;DHT22;11349;53.412;-1.328;2024-01-10T15:19:24;5.60;99.90
22364;DHT22;11349;53.412;-1.328;2024-01-10T15:21:49;5.60;99.90
22364;DHT22;11349;53.412;-1.328;2024-01-10T15:24:15;5.60;99.90
22364;DHT22;11349;53.412;-1.328;2024-01-10T15:26:41;5.60;99.90
22364;DHT22;11349;53.412;-1.328;2024-01-10T15:29:07;5.60;99.90
22364;DHT22;11349;53.412;-1.328;2024-01-10T15:31:33;5.60;99.90
22364;DHT22;11349;53.412;-1.328;2024-01-10T15:34:02;5.60;99.90
22364;DHT22;11349;53.412;-1.328;2024-01-10T15:36:27;5.70;99.90
22364;DHT22;11349;53.412;-1.328;2024-01-10T15:38:53;5.60;99.90
22364;DHT22;11349;53.412;-1.328;2024-01-10T15:41:20;5.60;99.90
22364;DHT22;11349;53.412;-1.328;2024-01-10T15:43:45;5.70;99.90
22364;DHT22;11349;53.412;-1.328;2024-01-10T15:46:18;5.60;99.90